< < Back
Terminal Aerodrome Forecast


Current Version              Previous Versions:   1  2  3  4  5  6  7  8  9  

Terminal Aerodrome Forecast

914
FTUS44 KHUN 231730
TAFHSV
TAF
KHSV 231730Z 2318/2418 04005KT P6SM SCT250
     FM240000 VRB03KT P6SM OVC150
     FM241500 36004KT P6SM SKC=



Latest METAR

202
SAUS80 KWBC 240800
MTRHSV
METAR KHSV 240753Z AUTO 34003KT 10SM CLR 12/07 A3007 RMK AO2 SLP179
T01170072


USA.gov is the U.S. government's official web portal to all federal, state and local government web resources and services.